createdAt,value
2022-07-30T00:02:06.082Z,2.97
2022-07-30T00:04:39.448Z,3.15
2022-07-30T00:07:06.449Z,3.22
2022-07-30T00:09:34.279Z,2.58
2022-07-30T00:12:04.476Z,3.03
2022-07-30T00:14:32.274Z,2.85
2022-07-30T00:16:59.565Z,3.08
2022-07-30T00:19:27.764Z,2.90
2022-07-30T00:22:20.747Z,3.00
2022-07-30T00:24:47.694Z,3.15
2022-07-30T00:27:14.576Z,3.72
2022-07-30T00:29:44.952Z,3.15
2022-07-30T00:32:12.073Z,3.38
2022-07-30T00:34:39.227Z,3.40
2022-07-30T00:37:07.004Z,3.28
2022-07-30T00:39:34.784Z,3.30
2022-07-30T00:42:04.635Z,3.63
2022-07-30T00:44:31.990Z,3.72
2022-07-30T00:47:02.031Z,3.85
2022-07-30T00:49:29.874Z,4.15
2022-07-30T00:51:56.936Z,4.20
2022-07-30T00:54:25.478Z,4.07
2022-07-30T00:56:52.609Z,4.43
2022-07-30T00:59:19.560Z,4.05
2022-07-30T01:01:47.345Z,4.13
2022-07-30T01:04:14.342Z,4.80
2022-07-30T01:06:41.325Z,4.57
2022-07-30T01:09:08.684Z,4.72
2022-07-30T01:11:42.270Z,4.47
2022-07-30T01:14:10.834Z,4.60
2022-07-30T01:16:41.996Z,4.35
2022-07-30T01:19:58.270Z,5.55
2022-07-30T01:22:31.243Z,4.40
2022-07-30T01:25:25.729Z,4.60
2022-07-30T01:28:00.847Z,4.85
2022-07-30T01:30:32.610Z,5.20
2022-07-30T01:33:04.673Z,5.00
2022-07-30T01:35:35.400Z,5.07
2022-07-30T01:38:05.327Z,5.30
2022-07-30T01:40:34.850Z,5.25
2022-07-30T01:43:03.678Z,5.30
2022-07-30T01:45:33.472Z,4.95
2022-07-30T01:48:13.621Z,4.90
2022-07-30T01:50:55.010Z,4.93
2022-07-30T01:53:29.980Z,5.18
2022-07-30T01:56:01.886Z,5.90
2022-07-30T01:58:35.556Z,5.68
2022-07-30T02:01:20.318Z,5.22
2022-07-30T02:03:48.005Z,5.78
2022-07-30T02:06:33.094Z,5.28
2022-07-30T02:09:10.625Z,5.40
2022-07-30T02:12:03.794Z,5.45
2022-07-30T02:14:43.786Z,5.65
2022-07-30T02:17:19.433Z,5.15
2022-07-30T02:19:57.448Z,6.00
2022-07-30T02:22:31.185Z,5.30
2022-07-30T02:25:02.891Z,5.95
2022-07-30T02:27:35.271Z,5.70
2022-07-30T02:30:07.881Z,5.72
2022-07-30T02:32:40.847Z,6.55
2022-07-30T02:35:22.636Z,5.93
2022-07-30T02:37:56.744Z,6.50
2022-07-30T02:40:25.394Z,6.18
2022-07-30T02:42:54.682Z,7.30
2022-07-30T02:45:26.348Z,6.00
2022-07-30T02:48:06.626Z,7.05
2022-07-30T02:50:35.751Z,5.78
2022-07-30T02:53:06.786Z,5.95
2022-07-30T02:55:41.062Z,6.65
2022-07-30T02:58:11.470Z,6.70
2022-07-30T03:00:40.867Z,5.85
2022-07-30T03:03:11.738Z,6.60
2022-07-30T03:05:41.141Z,6.28
2022-07-30T03:08:09.784Z,6.63
2022-07-30T03:10:39.710Z,7.70
2022-07-30T03:13:09.675Z,6.82
2022-07-30T03:15:42.061Z,6.35
2022-07-30T03:18:14.958Z,6.30
2022-07-30T03:20:52.735Z,6.93
2022-07-30T03:23:20.719Z,6.18
2022-07-30T03:25:59.443Z,7.03
2022-07-30T03:28:32.047Z,6.72
2022-07-30T03:31:01.257Z,6.90
2022-07-30T03:33:38.272Z,6.90
2022-07-30T03:36:09.906Z,6.82
2022-07-30T03:38:42.938Z,7.03
2022-07-30T03:41:14.776Z,6.53
2022-07-30T03:43:46.434Z,6.55
2022-07-30T03:46:17.115Z,6.55
2022-07-30T03:48:47.806Z,6.55
2022-07-30T03:51:20.957Z,6.32
2022-07-30T03:53:49.025Z,6.63
2022-07-30T03:56:45.717Z,6.32
2022-07-30T03:59:22.902Z,6.05
2022-07-30T04:01:49.910Z,7.93
2022-07-30T04:04:41.638Z,6.85
2022-07-30T04:07:09.847Z,6.93
2022-07-30T04:09:36.879Z,7.68
2022-07-30T04:12:23.535Z,7.55
2022-07-30T04:14:50.490Z,7.00
2022-07-30T04:17:33.389Z,7.23
2022-07-30T04:20:18.162Z,7.03
2022-07-30T04:22:47.138Z,8.13
2022-07-30T04:25:24.280Z,7.82
2022-07-30T04:28:02.790Z,6.97
2022-07-30T04:30:34.790Z,6.95
2022-07-30T04:33:05.463Z,7.47
2022-07-30T04:35:51.079Z,7.13
2022-07-30T04:38:32.987Z,7.13
2022-07-30T04:41:00.238Z,6.93
2022-07-30T04:43:59.987Z,7.68
2022-07-30T04:46:28.627Z,7.47
2022-07-30T04:48:55.750Z,8.00
2022-07-30T04:51:37.939Z,7.72
2022-07-30T04:54:16.466Z,8.18
2022-07-30T04:56:50.294Z,7.35
2022-07-30T04:59:29.023Z,7.63
2022-07-30T05:02:01.939Z,7.68
2022-07-30T05:04:35.695Z,7.82
2022-07-30T05:07:05.172Z,7.75
2022-07-30T05:09:32.767Z,8.38
2022-07-30T05:12:01.789Z,8.52
2022-07-30T05:14:31.104Z,8.65
2022-07-30T05:16:58.831Z,8.52
2022-07-30T05:19:26.360Z,8.57
2022-07-30T05:21:53.399Z,8.27
2022-07-30T05:24:20.434Z,8.35
2022-07-30T05:26:54.107Z,7.63
2022-07-30T05:29:24.141Z,8.02
2022-07-30T05:31:56.595Z,7.50
2022-07-30T05:34:30.290Z,9.25
2022-07-30T05:37:00.059Z,8.77
2022-07-30T05:39:27.060Z,8.65
2022-07-30T05:42:17.214Z,8.48
2022-07-30T05:44:48.396Z,8.57
2022-07-30T05:47:15.390Z,8.30
2022-07-30T05:49:42.438Z,8.98
2022-07-30T05:52:14.699Z,8.88
2022-07-30T05:54:42.647Z,8.43
2022-07-30T05:57:12.286Z,8.73
2022-07-30T05:59:41.712Z,8.57
2022-07-30T06:02:18.650Z,9.23
2022-07-30T06:05:14.787Z,8.70
2022-07-30T06:07:43.237Z,8.88
2022-07-30T06:10:10.302Z,9.23
2022-07-30T06:12:40.324Z,9.40
2022-07-30T06:15:09.515Z,8.20
2022-07-30T06:17:57.110Z,8.13
2022-07-30T06:20:41.881Z,7.53
2022-07-30T06:23:12.259Z,7.65
2022-07-30T06:25:58.397Z,8.70
2022-07-30T06:28:37.607Z,8.45
2022-07-30T06:31:13.324Z,8.32
2022-07-30T06:33:43.135Z,8.48
2022-07-30T06:36:14.164Z,7.50
2022-07-30T06:39:00.045Z,7.30
2022-07-30T06:41:47.268Z,6.95
2022-07-30T06:44:17.797Z,6.65
2022-07-30T06:47:12.246Z,6.10
2022-07-30T06:49:43.504Z,5.70
2022-07-30T06:52:11.342Z,5.53
2022-07-30T06:54:46.601Z,5.15
2022-07-30T06:57:20.065Z,4.03
2022-07-30T06:59:56.964Z,4.38
2022-07-30T07:02:39.977Z,3.50
2022-07-30T07:05:12.510Z,4.07
2022-07-30T07:07:57.843Z,3.65
2022-07-30T07:10:29.470Z,3.53
2022-07-30T07:13:08.787Z,3.83
2022-07-30T07:15:39.188Z,3.22
2022-07-30T07:18:10.147Z,3.25
2022-07-30T07:20:40.735Z,4.00
2022-07-30T07:23:11.993Z,3.42
2022-07-30T07:25:41.591Z,2.80
2022-07-30T07:28:12.395Z,2.70
2022-07-30T07:30:44.437Z,3.53
2022-07-30T07:33:13.387Z,2.90
2022-07-30T07:35:49.438Z,3.55
2022-07-30T07:38:27.713Z,2.95
2022-07-30T07:40:57.930Z,3.42
2022-07-30T07:43:25.275Z,3.72
2022-07-30T07:45:54.961Z,3.28
2022-07-30T07:48:25.688Z,3.42
2022-07-30T07:51:00.624Z,3.33
2022-07-30T07:53:36.487Z,2.95
2022-07-30T07:56:04.343Z,2.65
2022-07-30T07:58:31.626Z,2.58
2022-07-30T08:01:02.077Z,2.70
2022-07-30T08:03:49.218Z,2.80
2022-07-30T08:06:45.586Z,2.30
2022-07-30T08:09:40.599Z,2.17
2022-07-30T08:12:27.517Z,2.40
2022-07-30T08:15:16.235Z,2.33
2022-07-30T08:18:13.952Z,2.38
2022-07-30T08:20:59.471Z,2.20
2022-07-30T08:23:34.506Z,1.85
2022-07-30T08:26:02.093Z,2.17
2022-07-30T08:28:35.682Z,2.30
2022-07-30T08:31:05.640Z,1.90
2022-07-30T08:33:32.659Z,2.40
2022-07-30T08:36:04.419Z,1.80
2022-07-30T08:38:38.709Z,2.28
2022-07-30T08:41:08.557Z,2.05
2022-07-30T08:43:39.410Z,1.70
2022-07-30T08:46:12.764Z,1.85
2022-07-30T08:48:52.823Z,1.90
2022-07-30T08:51:22.396Z,1.80
2022-07-30T08:53:50.445Z,1.90
2022-07-30T08:56:18.044Z,2.38
2022-07-30T08:58:47.917Z,2.38
2022-07-30T09:01:20.090Z,2.38
2022-07-30T09:03:47.140Z,1.88
2022-07-30T09:06:16.621Z,1.77
2022-07-30T09:08:45.633Z,2.05
2022-07-30T09:11:12.851Z,1.67
2022-07-30T09:13:42.978Z,2.00
2022-07-30T09:16:24.466Z,2.40
2022-07-30T09:18:55.279Z,1.70
2022-07-30T09:21:30.007Z,2.03
2022-07-30T09:24:17.172Z,2.15
2022-07-30T09:27:06.938Z,1.70
2022-07-30T09:30:03.331Z,2.17
2022-07-30T09:32:58.216Z,2.55
2022-07-30T09:35:44.005Z,2.22
2022-07-30T09:38:12.942Z,2.05
2022-07-30T09:40:57.780Z,2.10
2022-07-30T09:43:55.626Z,1.80
2022-07-30T09:46:51.009Z,2.17
2022-07-30T09:49:28.799Z,2.20
2022-07-30T09:51:58.194Z,2.17
2022-07-30T09:54:52.412Z,2.20
2022-07-30T09:57:27.320Z,2.00
2022-07-30T10:00:23.933Z,2.15
2022-07-30T10:03:33.904Z,2.03
2022-07-30T10:06:38.148Z,1.92
2022-07-30T10:09:37.245Z,1.70
2022-07-30T10:12:14.726Z,1.60
2022-07-30T10:14:49.456Z,2.00
2022-07-30T10:17:21.978Z,1.70
2022-07-30T10:20:10.071Z,1.75
2022-07-30T10:22:59.767Z,2.03
2022-07-30T10:25:49.439Z,1.88
2022-07-30T10:28:51.030Z,1.85
2022-07-30T10:31:46.666Z,2.03
2022-07-30T10:34:10.187Z,1.55
2022-07-30T10:36:45.837Z,1.48
2022-07-30T10:39:22.126Z,1.40
2022-07-30T10:42:34.919Z,1.40
2022-07-30T10:45:47.117Z,1.48
2022-07-30T10:48:15.143Z,1.50
2022-07-30T10:50:56.372Z,1.60
2022-07-30T10:53:52.472Z,1.27
2022-07-30T10:56:25.853Z,1.60
2022-07-30T10:59:10.732Z,1.55
2022-07-30T11:01:53.212Z,1.50
2022-07-30T11:04:46.573Z,1.60
2022-07-30T11:07:27.477Z,1.45
2022-07-30T11:10:08.766Z,1.60
2022-07-30T11:12:43.926Z,1.35
2022-07-30T11:15:18.568Z,1.70
2022-07-30T11:18:02.804Z,1.35
2022-07-30T11:20:38.573Z,1.73
2022-07-30T11:23:20.618Z,1.70
2022-07-30T11:25:51.258Z,1.80
2022-07-30T11:28:49.449Z,1.63
2022-07-30T11:31:54.936Z,1.75
2022-07-30T11:34:25.602Z,1.67
2022-07-30T11:37:18.584Z,1.40
2022-07-30T11:39:58.135Z,1.40
2022-07-30T11:42:31.360Z,1.30
2022-07-30T11:45:30.257Z,1.50
2022-07-30T11:48:00.183Z,1.70
2022-07-30T11:50:35.102Z,1.50
2022-07-30T11:53:09.108Z,1.40
2022-07-30T11:55:46.637Z,1.60
2022-07-30T11:58:40.117Z,1.63
2022-07-30T12:01:18.056Z,1.50
2022-07-30T12:03:46.388Z,1.33
2022-07-30T12:06:19.902Z,1.60
2022-07-30T12:08:57.876Z,1.52
2022-07-30T12:11:39.600Z,1.60
2022-07-30T12:14:06.894Z,1.60
2022-07-30T12:16:35.176Z,1.45
2022-07-30T12:19:17.820Z,1.33
2022-07-30T12:21:52.939Z,1.45
2022-07-30T12:24:27.910Z,1.60
2022-07-30T12:27:08.235Z,1.70
2022-07-30T12:29:36.083Z,1.38
2022-07-30T12:32:03.432Z,1.50
2022-07-30T12:34:31.319Z,1.58
2022-07-30T12:37:09.964Z,1.70
2022-07-30T12:39:38.197Z,1.30
2022-07-30T12:42:07.729Z,1.60
2022-07-30T12:44:47.009Z,1.38
2022-07-30T12:47:30.122Z,1.55
2022-07-30T12:50:03.532Z,1.63
2022-07-30T12:52:34.926Z,1.80
2022-07-30T12:55:09.124Z,1.88
2022-07-30T12:58:07.723Z,1.80
2022-07-30T13:00:52.645Z,1.80
2022-07-30T13:03:29.191Z,1.88
2022-07-30T13:05:57.770Z,1.65
2022-07-30T13:08:58.493Z,2.00
2022-07-30T13:11:39.117Z,1.80
2022-07-30T13:14:08.212Z,1.83
2022-07-30T13:16:37.264Z,1.50
2022-07-30T13:19:10.987Z,1.70
2022-07-30T13:21:49.546Z,1.70
2022-07-30T13:24:21.239Z,1.73
2022-07-30T13:26:50.835Z,1.30
2022-07-30T13:29:18.557Z,1.70
2022-07-30T13:31:47.980Z,1.58
2022-07-30T13:34:15.836Z,1.38
2022-07-30T13:36:43.007Z,1.52
2022-07-30T13:39:12.067Z,1.60
2022-07-30T13:41:41.750Z,1.90
2022-07-30T13:44:11.079Z,1.40
2022-07-30T13:46:41.289Z,1.80
2022-07-30T13:49:13.789Z,1.45
2022-07-30T13:51:42.196Z,1.73
2022-07-30T13:54:10.727Z,1.52
2022-07-30T13:56:43.360Z,1.88
2022-07-30T13:59:10.322Z,1.73
2022-07-30T14:01:38.694Z,1.60
2022-07-30T14:04:07.614Z,1.63
2022-07-30T14:06:34.749Z,1.42
2022-07-30T14:09:01.792Z,1.27
2022-07-30T14:11:28.973Z,1.60
2022-07-30T14:13:56.352Z,1.65
2022-07-30T14:16:44.229Z,1.50
2022-07-30T14:19:22.613Z,1.70
2022-07-30T14:21:53.974Z,1.50
2022-07-30T14:24:23.994Z,1.55
2022-07-30T14:26:58.730Z,1.42
2022-07-30T14:29:29.118Z,1.80
2022-07-30T14:31:57.793Z,1.63
2022-07-30T14:34:28.398Z,1.70
2022-07-30T14:36:58.733Z,1.60
2022-07-30T14:39:26.006Z,1.35
2022-07-30T14:41:56.356Z,1.63
2022-07-30T14:44:25.005Z,1.83
2022-07-30T14:46:53.971Z,1.73
2022-07-30T14:52:16.466Z,1.77
2022-07-30T14:54:44.381Z,1.80
2022-07-30T14:57:11.536Z,1.30
2022-07-30T14:59:38.809Z,1.60
2022-07-30T15:02:07.096Z,1.52
2022-07-30T15:04:38.848Z,1.40
2022-07-30T15:07:06.915Z,1.70
2022-07-30T15:09:37.743Z,1.42
2022-07-30T15:12:08.360Z,1.58
2022-07-30T15:14:40.302Z,1.10
2022-07-30T15:17:09.949Z,1.20
2022-07-30T15:19:49.211Z,1.40
2022-07-30T15:22:23.181Z,1.40
2022-07-30T15:24:51.562Z,1.42
2022-07-30T15:27:18.664Z,1.45
2022-07-30T15:29:47.809Z,1.70
2022-07-30T15:32:16.789Z,1.17
2022-07-30T15:34:45.154Z,1.23
2022-07-30T15:37:13.113Z,1.42
2022-07-30T15:40:08.323Z,1.35
2022-07-30T15:42:36.576Z,1.50
2022-07-30T15:45:17.159Z,1.30
2022-07-30T15:47:45.085Z,1.40
2022-07-30T15:50:13.485Z,1.30
2022-07-30T15:52:41.350Z,1.70
2022-07-30T15:55:12.785Z,1.70
2022-07-30T15:57:43.646Z,1.60
2022-07-30T16:00:13.841Z,1.50
2022-07-30T16:02:43.473Z,1.50
2022-07-30T16:05:14.122Z,1.27
2022-07-30T16:07:43.828Z,1.38
2022-07-30T16:10:11.087Z,1.70
2022-07-30T16:12:42.172Z,1.25
2022-07-30T16:15:11.007Z,1.90
2022-07-30T16:17:38.421Z,1.40
2022-07-30T16:20:07.258Z,1.30
2022-07-30T16:22:34.414Z,1.60
2022-07-30T16:25:02.334Z,1.38
2022-07-30T16:27:29.378Z,1.40
2022-07-30T16:29:58.872Z,1.40
2022-07-30T16:32:25.780Z,1.42
2022-07-30T16:34:52.765Z,1.60
2022-07-30T16:37:21.725Z,1.40
2022-07-30T16:39:51.056Z,1.80
2022-07-30T16:42:19.257Z,7.22
2022-07-30T16:44:48.633Z,3.35
2022-07-30T16:47:17.747Z,2.50
2022-07-30T16:49:44.774Z,1.80
2022-07-30T16:52:11.732Z,1.70
2022-07-30T16:54:38.708Z,1.48
2022-07-30T16:57:10.408Z,1.67
2022-07-30T16:59:42.158Z,1.48
2022-07-30T17:02:10.984Z,2.10
2022-07-30T17:04:38.840Z,1.70
2022-07-30T17:07:09.003Z,1.70
2022-07-30T17:09:36.584Z,1.85
2022-07-30T17:12:12.289Z,1.85
2022-07-30T17:14:41.750Z,1.42
2022-07-30T17:17:13.984Z,1.33
2022-07-30T17:19:42.946Z,2.78
2022-07-30T17:22:09.900Z,1.85
2022-07-30T17:24:37.784Z,1.80
2022-07-30T17:27:04.970Z,1.60
2022-07-30T17:29:31.988Z,1.58
2022-07-30T17:31:59.348Z,1.75
2022-07-30T17:34:26.680Z,1.58
2022-07-30T17:36:53.604Z,1.65
2022-07-30T17:40:19.066Z,1.52
2022-07-30T17:42:14.485Z,1.52
2022-07-30T17:44:42.878Z,1.50
2022-07-30T17:47:15.042Z,1.40
2022-07-30T17:49:48.291Z,1.70
2022-07-30T17:52:15.340Z,1.50
2022-07-30T17:54:42.272Z,1.75
2022-07-30T17:57:10.921Z,1.67
2022-07-30T17:59:40.299Z,1.70
2022-07-30T18:02:09.715Z,1.60
2022-07-30T18:04:38.166Z,1.60
2022-07-30T18:07:07.995Z,1.60
2022-07-30T18:09:40.314Z,1.40
2022-07-30T18:12:10.916Z,1.45
2022-07-30T18:14:38.818Z,1.60
2022-07-30T18:17:08.240Z,1.48
2022-07-30T18:19:41.649Z,1.70
2022-07-30T18:22:09.407Z,1.65
2022-07-30T18:24:39.965Z,1.80
2022-07-30T18:27:09.548Z,1.50
2022-07-30T18:29:38.966Z,1.50
2022-07-30T18:32:06.817Z,1.58
2022-07-30T18:34:34.583Z,1.40
2022-07-30T18:37:02.375Z,1.63
2022-07-30T18:39:29.399Z,1.42
2022-07-30T18:41:58.172Z,1.65
2022-07-30T18:44:25.151Z,1.58
2022-07-30T18:47:01.884Z,1.52
2022-07-30T18:49:38.183Z,1.67
2022-07-30T18:52:07.735Z,1.60
2022-07-30T18:54:36.565Z,1.90
2022-07-30T18:57:04.891Z,2.10
2022-07-30T18:59:32.791Z,1.90
2022-07-30T19:02:00.606Z,1.70
2022-07-30T19:04:29.274Z,1.83
2022-07-30T19:06:56.290Z,1.73
2022-07-30T19:09:23.706Z,1.75
2022-07-30T19:11:54.413Z,1.63
2022-07-30T19:14:25.328Z,1.83
2022-07-30T19:16:59.363Z,1.83
2022-07-30T19:19:31.652Z,1.80
2022-07-30T19:22:01.525Z,1.70
2022-07-30T19:24:30.855Z,1.90
2022-07-30T19:26:57.984Z,2.20
2022-07-30T19:29:29.103Z,1.90
2022-07-30T19:31:58.943Z,1.63
2022-07-30T19:34:29.828Z,1.85
2022-07-30T19:37:00.640Z,1.63
2022-07-30T19:39:28.104Z,2.10
2022-07-30T19:41:57.781Z,1.70
2022-07-30T19:44:25.208Z,2.10
2022-07-30T19:46:52.381Z,1.92
2022-07-30T19:49:21.664Z,1.98
2022-07-30T19:52:10.064Z,1.52
2022-07-30T19:54:40.152Z,1.98
2022-07-30T19:57:11.897Z,1.77
2022-07-30T19:59:59.344Z,1.67
2022-07-30T20:02:28.226Z,1.80
2022-07-30T20:04:56.163Z,1.80
2022-07-30T20:07:27.593Z,1.85
2022-07-30T20:09:54.753Z,2.20
2022-07-30T20:12:24.593Z,2.03
2022-07-30T20:14:53.519Z,2.00
2022-07-30T20:17:20.462Z,2.35
2022-07-30T20:19:48.697Z,2.00
2022-07-30T20:22:16.797Z,1.67
2022-07-30T20:24:50.530Z,2.30
2022-07-30T20:27:36.121Z,1.90
2022-07-30T20:30:08.960Z,1.90
2022-07-30T20:32:40.574Z,2.30
2022-07-30T20:35:15.336Z,2.30
2022-07-30T20:37:55.716Z,2.20
2022-07-30T20:43:14.684Z,2.05
2022-07-30T20:45:42.976Z,2.10
2022-07-30T20:48:17.258Z,2.10
2022-07-30T20:50:53.520Z,2.13
2022-07-30T20:53:23.059Z,2.22
2022-07-30T20:55:52.084Z,2.40
2022-07-30T20:58:20.943Z,2.40
2022-07-30T21:00:50.848Z,2.35
2022-07-30T21:03:23.773Z,2.50
2022-07-30T21:05:52.921Z,3.00
2022-07-30T21:08:21.215Z,2.70
2022-07-30T21:10:55.636Z,2.63
2022-07-30T21:13:24.999Z,2.10
2022-07-30T21:16:02.827Z,2.22
2022-07-30T21:18:32.792Z,2.63
2022-07-30T21:21:01.306Z,2.25
2022-07-30T21:23:31.995Z,2.35
2022-07-30T21:26:00.576Z,2.60
2022-07-30T21:28:35.937Z,2.97
2022-07-30T21:33:51.827Z,2.70
2022-07-30T21:36:24.851Z,2.78
2022-07-30T21:38:53.756Z,2.55
2022-07-30T21:41:40.508Z,3.20
2022-07-30T21:44:08.253Z,2.80
2022-07-30T21:47:01.920Z,2.45
2022-07-30T21:49:31.638Z,2.30
2022-07-30T21:51:58.731Z,3.00
2022-07-30T21:54:28.425Z,2.63
2022-07-30T21:56:58.220Z,3.35
2022-07-30T21:59:25.738Z,2.78
2022-07-30T22:01:55.682Z,3.50
2022-07-30T22:04:22.887Z,3.63
2022-07-30T22:06:54.780Z,3.17
2022-07-30T22:09:32.970Z,3.42
2022-07-30T22:12:09.873Z,2.95
2022-07-30T22:14:40.012Z,3.17
2022-07-30T22:17:14.724Z,2.78
2022-07-30T22:19:51.848Z,3.33
2022-07-30T22:22:27.650Z,3.60
2022-07-30T22:24:58.240Z,3.60
2022-07-30T22:27:28.337Z,3.10
2022-07-30T22:30:09.922Z,3.20
2022-07-30T22:32:38.088Z,3.15
2022-07-30T22:35:10.114Z,3.80
2022-07-30T22:37:41.192Z,3.83
2022-07-30T22:40:08.954Z,3.50
2022-07-30T22:42:46.853Z,3.40
2022-07-30T22:48:10.882Z,2.85
2022-07-30T22:50:41.064Z,3.33
2022-07-30T22:53:56.234Z,3.08
2022-07-30T22:55:55.959Z,2.95
2022-07-30T22:58:26.333Z,3.30
2022-07-30T23:00:53.853Z,3.55
2022-07-30T23:03:21.163Z,3.15
2022-07-30T23:05:56.189Z,3.13
2022-07-30T23:08:30.320Z,3.25
2022-07-30T23:10:59.712Z,3.00
2022-07-30T23:12:18.317Z,2.40
2022-07-30T23:12:30.392Z,3.15
2022-07-30T23:12:31.285Z,2.47
2022-07-30T23:13:27.845Z,3.20
2022-07-30T23:15:54.780Z,3.10
2022-07-30T23:18:22.497Z,3.08
2022-07-30T23:20:49.382Z,2.90
2022-07-30T23:23:17.957Z,3.40
2022-07-30T23:25:45.138Z,3.30
2022-07-30T23:28:13.727Z,3.42
2022-07-30T23:30:40.692Z,3.22
2022-07-30T23:33:07.712Z,3.42
2022-07-30T23:35:34.947Z,3.83
2022-07-30T23:38:02.857Z,3.78
2022-07-30T23:40:29.881Z,3.65
2022-07-30T23:42:59.983Z,3.72
2022-07-30T23:45:26.941Z,3.83
2022-07-30T23:48:02.386Z,4.13
2022-07-30T23:50:33.947Z,3.88
2022-07-30T23:53:02.188Z,4.20
2022-07-30T23:55:31.740Z,4.10
2022-07-30T23:58:00.273Z,4.00
